.
WxDataArchive / Data Records for 2011-09-23
2011-09-22 September 2011 2011-09-24

Data Records for Friday, 23 September 2011

Time	Temp	Chill	HIndex	Humid	Dewpt	 Wind 	HiWind	WindDir	Rain 	Barom 
-----	----	-----	------	-----	-----	------	------	-------	-----	----- 
00:00	54.4	54.4	54.4	93	52.4	0	0	---	0.00	30.128 
00:05	54.4	54.4	54.4	93	52.4	0	0	---	0.00	30.128 
00:10	54.2	54.2	54.2	93	52.2	0	0	---	0.00	30.128 
00:15	54.2	54.2	54.2	94	52.5	0	0	---	0.00	30.125 
00:20	54.2	54.2	54.2	94	52.5	0	0	---	0.01	30.125 
00:25	54.2	54.2	54.2	94	52.5	0	0	---	0.00	30.125 
00:30	54.2	54.2	54.2	94	52.5	0	0	---	0.01	30.121 
00:35	54.1	54.1	54.1	94	52.4	0	1	270	0.00	30.121 
00:40	54.1	54.1	54.1	94	52.4	0	1	270	0.00	30.121 
00:45	53.9	53.9	53.9	94	52.2	0	0	---	0.00	30.111 
00:50	53.8	53.8	53.8	94	52.1	0	0	---	0.00	30.111 
00:55	53.5	53.5	53.5	94	51.8	0	0	---	0.00	30.111 
01:00	53.5	53.5	53.5	94	51.8	0	0	---	0.00	30.104 
01:05	53.5	53.5	53.5	94	51.8	0	0	---	0.00	30.104 
01:10	53.5	53.5	53.5	94	51.8	0	0	---	0.00	30.104 
01:15	53.5	53.5	53.5	94	51.8	0	0	---	0.00	30.098 
01:20	53.5	53.5	53.5	94	51.8	0	0	---	0.00	30.098 
01:25	53.5	53.5	53.5	94	51.8	0	0	---	0.00	30.098 
01:30	53.5	53.5	53.5	94	51.8	0	0	---	0.00	30.091 
01:35	53.6	53.6	53.6	94	51.9	0	0	---	0.00	30.091 
01:40	53.5	53.5	53.5	94	51.8	0	0	---	0.00	30.091 
01:45	53.5	53.5	53.5	94	51.8	0	0	---	0.00	30.090 
01:50	53.5	53.5	53.5	94	51.8	0	0	---	0.00	30.090 
01:55	53.5	53.5	53.5	94	51.8	0	0	---	0.00	30.090 
02:00	53.5	53.5	53.5	94	51.8	0	0	---	0.00	30.082 
02:05	53.3	53.3	53.3	94	51.6	0	1	270	0.00	30.082 
02:10	53.3	53.3	53.3	95	51.9	0	1	270	0.00	30.082 
02:15	53.3	53.3	53.3	95	51.9	0	0	---	0.00	30.077 
02:20	53.3	53.3	53.3	95	51.9	0	0	---	0.00	30.077 
02:25	53.3	53.3	53.3	95	51.9	0	0	---	0.01	30.077 
02:30	53.3	53.3	53.3	95	51.9	0	0	---	0.00	30.079 
02:35	53.3	53.3	53.3	95	51.9	0	0	---	0.00	30.079 
02:40	53.2	53.2	53.2	95	51.8	0	0	---	0.01	30.079 
02:45	53.2	53.2	53.2	95	51.8	0	0	---	0.00	30.082 
02:50	53.1	53.1	53.1	95	51.7	0	0	---	0.00	30.082 
02:55	53.1	53.1	53.1	95	51.7	0	0	---	0.00	30.082 
03:00	52.9	52.9	52.9	95	51.5	0	0	---	0.01	30.080 
03:05	52.9	52.9	52.9	95	51.5	0	0	---	0.00	30.080 
03:10	52.9	52.9	52.9	95	51.5	0	0	---	0.00	30.080 
03:15	53.1	53.1	53.1	95	51.7	0	0	---	0.00	30.082 
03:20	53.1	53.1	53.1	95	51.7	0	0	---	0.00	30.082 
03:25	53.1	53.1	53.1	95	51.7	0	0	---	0.00	30.082 
03:30	52.9	52.9	52.9	95	51.5	0	1	270	0.00	30.070 
03:35	52.8	52.8	52.8	95	51.4	0	0	---	0.00	30.070 
03:40	52.8	52.8	52.8	95	51.4	0	0	---	0.00	30.070 
03:45	52.6	52.6	52.6	95	51.2	0	1	270	0.00	30.068 
03:50	52.6	52.6	52.6	95	51.2	0	0	---	0.00	30.068 
03:55	52.6	52.6	52.6	95	51.2	0	1	270	0.00	30.068 
04:00	52.6	52.6	52.6	95	51.2	0	0	---	0.00	30.067 
04:05	52.8	52.8	52.8	95	51.4	0	1	270	0.00	30.067 
04:10	52.8	52.8	52.8	95	51.4	0	0	---	0.01	30.067 
04:15	52.6	52.6	52.6	95	51.2	0	0	---	0.00	30.068 
04:20	52.6	52.6	52.6	95	51.2	0	0	---	0.00	30.068 
04:25	52.8	52.8	52.8	95	51.4	0	1	270	0.00	30.068 
04:30	52.8	52.8	52.8	95	51.4	0	1	270	0.00	30.067 
04:35	52.6	52.6	52.6	95	51.2	0	0	---	0.00	30.067 
04:40	52.6	52.6	52.6	95	51.2	0	1	270	0.00	30.067 
04:45	52.6	52.6	52.6	95	51.2	0	0	---	0.00	30.067 
04:50	52.5	52.5	52.5	95	51.1	0	0	---	0.00	30.067 
04:55	52.5	52.5	52.5	95	51.1	0	0	---	0.00	30.067 
05:00	52.5	52.5	52.5	95	51.1	0	0	---	0.00	30.057 
05:05	52.5	52.5	52.5	95	51.1	0	1	270	0.00	30.057 
05:10	52.5	52.5	52.5	95	51.1	0	0	---	0.00	30.057 
05:15	52.5	52.5	52.5	95	51.1	0	0	---	0.00	30.066 
05:20	52.5	52.5	52.5	95	51.1	0	0	---	0.00	30.066 
05:25	52.5	52.5	52.5	96	51.4	0	0	---	0.00	30.066 
05:30	52.5	52.5	52.5	96	51.4	0	1	270	0.00	30.065 
05:35	52.5	52.5	52.5	96	51.4	0	1	270	0.00	30.065 
05:40	52.5	52.5	52.5	95	51.1	0	0	---	0.00	30.065 
05:45	52.5	52.5	52.5	96	51.4	0	0	---	0.00	30.061 
05:50	52.5	52.5	52.5	96	51.4	0	0	---	0.00	30.061 
05:55	52.5	52.5	52.5	96	51.4	0	0	---	0.00	30.061 
06:00	52.6	52.6	52.6	96	51.5	0	1	270	0.00	30.051 
06:05	52.6	52.6	52.6	96	51.5	0	1	270	0.00	30.051 
06:10	52.6	52.6	52.6	96	51.5	0	0	---	0.00	30.051 
06:15	52.6	52.6	52.6	96	51.5	0	0	---	0.00	30.054 
06:20	52.6	52.6	52.6	96	51.5	0	0	---	0.00	30.054 
06:25	52.6	52.6	52.6	96	51.5	0	0	---	0.00	30.054 
06:30	52.6	52.6	52.6	96	51.5	0	0	---	0.00	30.053 
06:35	52.5	52.5	52.5	96	51.4	0	0	---	0.00	30.053 
06:40	52.5	52.5	52.5	96	51.4	0	0	---	0.00	30.053 
06:45	52.5	52.5	52.5	96	51.4	0	0	---	0.00	30.052 
06:50	52.3	52.3	52.3	96	51.2	0	0	---	0.00	30.052 
06:55	52.3	52.3	52.3	96	51.2	0	0	---	0.00	30.052 
07:00	52.3	52.3	52.3	96	51.2	0	0	---	0.00	30.040 
07:05	52.3	52.3	52.3	96	51.2	0	1	270	0.00	30.040 
07:10	52.3	52.3	52.3	96	51.2	0	0	---	0.00	30.040 
07:15	52.3	52.3	52.3	96	51.2	0	0	---	0.00	30.053 
07:20	52.3	52.3	52.3	96	51.2	0	0	---	0.00	30.053 
07:25	52.3	52.3	52.3	96	51.2	0	0	---	0.00	30.053 
07:30	52.3	52.3	52.3	96	51.2	0	0	---	0.00	30.056 
07:35	52.3	52.3	52.3	96	51.2	0	0	---	0.00	30.056 
07:40	52.3	52.3	52.3	96	51.2	0	0	---	0.00	30.056 
07:45	52.3	52.3	52.3	96	51.2	0	0	---	0.00	30.048 
07:50	52.3	52.3	52.3	96	51.2	0	0	---	0.00	30.048 
07:55	52.3	52.3	52.3	96	51.2	0	0	---	0.00	30.048 
08:00	52.3	52.3	52.3	96	51.2	0	0	---	0.00	30.053 
08:05	52.3	52.3	52.3	96	51.2	0	0	---	0.00	30.053 
08:10	52.3	52.3	52.3	96	51.2	0	0	---	0.00	30.053 
08:15	52.3	52.3	52.3	96	51.2	0	0	---	0.00	30.060 
08:20	52.3	52.3	52.3	96	51.2	0	0	---	0.00	30.060 
08:25	52.5	52.5	52.5	96	51.4	0	0	---	0.00	30.060 
08:30	52.5	52.5	52.5	96	51.4	0	0	---	0.00	30.058 
08:35	52.6	52.6	52.6	96	51.5	0	0	---	0.00	30.058 
08:40	52.8	52.8	52.8	96	51.7	0	0	---	0.00	30.058 
08:45	52.8	52.8	52.8	96	51.7	0	0	---	0.00	30.057 
08:50	52.9	52.9	52.9	96	51.8	0	0	---	0.00	30.057 
08:55	52.9	52.9	52.9	96	51.8	0	0	---	0.00	30.057 
09:00	52.9	52.9	52.9	96	51.8	0	0	---	0.00	30.058 
09:05	52.9	52.9	52.9	96	51.8	0	0	---	0.00	30.058 
09:10	53.1	53.1	53.1	96	52.0	0	0	---	0.00	30.058 
09:15	53.2	53.2	53.2	96	52.1	0	0	---	0.00	30.060 
09:20	53.3	53.3	53.3	96	52.2	0	0	---	0.00	30.060 
09:25	53.3	53.3	53.3	96	52.2	0	0	---	0.00	30.060 
09:30	53.3	53.3	53.3	96	52.2	0	0	---	0.01	30.062 
09:35	53.5	53.5	53.5	96	52.4	0	0	---	0.00	30.062 
09:40	53.6	53.6	53.6	96	52.5	0	0	---	0.00	30.062 
09:45	53.9	53.9	53.9	96	52.8	0	0	---	0.00	30.064 
09:50	54.2	54.2	54.2	96	53.1	0	1	270	0.00	30.064 
09:55	54.5	54.5	54.5	96	53.4	0	1	270	0.00	30.064 
10:00	54.7	54.7	54.7	96	53.6	0	0	---	0.00	30.059 
10:05	54.7	54.7	54.7	96	53.6	0	2	270	0.00	30.059 
10:10	54.5	54.5	54.5	96	53.4	0	1	270	0.00	30.059 
10:15	54.8	54.8	54.8	96	53.7	0	1	270	0.00	30.063 
10:20	55.3	55.3	55.3	96	54.2	0	1	270	0.00	30.063 
10:25	55.4	55.4	55.4	96	54.3	0	1	270	0.00	30.063 
10:30	55.6	55.6	55.6	96	54.5	0	2	270	0.00	30.060 
10:35	55.4	55.4	55.4	95	54.0	0	1	270	0.00	30.060 
10:40	56.2	56.2	56.2	96	55.1	0	1	270	0.00	30.060 
10:45	56.0	56.0	56.0	95	54.6	0	1	270	0.00	30.060 
10:50	56.2	56.2	56.2	95	54.8	0	1	270	0.00	30.060 
10:55	56.6	56.6	56.6	94	54.9	0	1	270	0.00	30.060 
11:00	57.2	57.2	57.2	93	55.2	0	2	270	0.00	30.058 
11:05	57.2	57.2	57.2	91	54.6	1	3	270	0.00	30.058 
11:10	57.5	57.5	57.5	90	54.6	0	1	270	0.00	30.058 
11:15	57.8	57.8	57.8	89	54.6	0	2	270	0.00	30.053 
11:20	58.6	58.6	58.6	86	54.4	0	2	270	0.00	30.053 
11:25	58.6	58.6	58.6	85	54.1	0	2	270	0.00	30.053 
11:30	59.0	59.0	59.0	84	54.2	1	2	270	0.00	30.053 
11:35	59.6	59.6	59.6	81	53.8	1	3	270	0.00	30.053 
11:40	59.2	59.2	59.2	77	52.0	1	2	270	0.00	30.053 
11:45	58.7	58.7	58.7	78	51.9	0	1	270	0.00	30.051 
11:50	58.4	58.4	58.4	79	51.9	0	1	270	0.00	30.051 
11:55	58.7	58.7	58.7	78	51.9	1	3	270	0.00	30.051 
12:00	59.8	59.8	59.8	78	52.9	0	3	270	0.00	30.041 
12:05	60.7	60.7	60.7	72	51.6	1	4	90	0.00	30.041 
12:10	61.5	61.5	61.5	71	52.0	1	3	270	0.00	30.041 
12:15	61.2	61.2	61.2	69	50.9	0	2	270	0.00	30.041 
12:20	60.5	60.5	60.5	70	50.7	0	2	270	0.00	30.041 
12:25	60.1	60.1	60.1	70	50.3	1	3	270	0.00	30.041 
12:30	59.9	59.9	59.9	69	49.7	0	2	270	0.00	30.039 
12:35	59.9	59.9	59.9	67	48.9	0	2	270	0.00	30.039 
12:40	60.4	60.4	60.4	69	50.2	0	2	270	0.00	30.039 
12:45	60.5	60.5	60.5	67	49.5	1	3	270	0.00	30.035 
12:50	60.9	60.9	60.9	68	50.3	0	2	270	0.00	30.035 
12:55	61.2	61.2	61.2	66	49.7	0	2	270	0.00	30.035 
13:00	61.2	61.2	61.2	64	48.9	0	1	270	0.00	30.031 
13:05	61.5	61.5	61.5	65	49.6	0	1	270	0.00	30.031 
13:10	61.8	61.8	61.8	65	49.9	1	3	270	0.00	30.031 
13:15	62.6	62.6	62.6	63	49.8	1	5	270	0.00	30.024 
13:20	63.1	63.1	63.1	62	49.9	1	3	112	0.00	30.024 
13:25	62.6	62.6	62.6	61	49.0	0	2	0	0.00	30.024 
13:30	62.1	62.1	62.1	62	48.9	0	1	0	0.00	30.022 
13:35	62.0	62.0	62.0	63	49.3	0	1	0	0.00	30.022 
13:40	62.0	62.0	62.0	64	49.7	0	0	---	0.00	30.022 
13:45	62.3	62.3	62.3	65	50.4	0	3	22	0.00	30.022 
13:50	62.1	62.1	62.1	62	48.9	0	2	22	0.00	30.022 
13:55	62.1	62.1	62.1	65	50.2	0	2	135	0.00	30.022 
14:00	62.3	62.3	62.3	65	50.4	0	2	135	0.00	30.019 
14:05	62.7	62.7	62.7	64	50.3	1	3	135	0.00	30.019 
14:10	63.7	63.7	63.7	63	50.9	1	6	112	0.00	30.019 
14:15	64.5	64.5	64.5	63	51.6	1	3	112	0.00	30.010 
14:20	65.2	65.2	65.2	61	51.4	1	5	112	0.00	30.010 
14:25	64.8	64.8	64.8	53	47.3	2	4	112	0.00	30.010 
14:30	64.8	64.8	64.8	55	48.2	1	3	112	0.00	30.009 
14:35	64.8	64.8	64.8	57	49.2	0	2	112	0.00	30.009 
14:40	64.7	64.7	64.7	56	48.6	0	1	112	0.00	30.009 
14:45	64.7	64.7	64.7	56	48.6	1	4	112	0.00	30.005 
14:50	64.3	64.3	64.3	59	49.7	1	3	112	0.00	30.005 
14:55	63.9	63.9	63.9	58	48.8	0	2	112	0.00	30.005 
15:00	63.4	63.4	63.4	58	48.4	0	2	112	0.00	30.006 
15:05	63.1	63.1	63.1	58	48.1	0	2	112	0.00	30.006 
15:10	62.6	62.6	62.6	59	48.1	1	3	112	0.00	30.006 
15:15	62.3	62.3	62.3	56	46.4	1	3	90	0.00	29.999 
15:20	62.3	62.3	62.3	56	46.4	0	2	292	0.00	29.999 
15:25	62.4	62.4	62.4	55	46.0	0	1	292	0.00	29.999 
15:30	62.7	62.7	62.7	55	46.3	0	2	292	0.00	29.992 
15:35	63.1	63.1	63.1	56	47.1	0	2	22	0.00	29.992 
15:40	63.5	63.5	63.5	57	48.0	0	2	22	0.00	29.992 
15:45	63.9	63.9	63.9	52	45.9	0	2	22	0.00	29.991 
15:50	63.9	63.9	63.9	51	45.4	1	4	135	0.00	29.991 
15:55	64.2	64.2	64.2	49	44.6	0	2	68	0.00	29.991 
16:00	64.3	64.3	64.3	51	45.8	0	3	45	0.00	29.986 
16:05	64.3	64.3	64.3	53	46.8	0	2	225	0.00	29.986 
16:10	64.3	64.3	64.3	52	46.3	1	4	112	0.00	29.986 
16:15	64.5	64.5	64.5	52	46.5	0	3	112	0.00	29.977 
16:20	64.3	64.3	64.3	52	46.3	0	3	112	0.00	29.977 
16:25	64.0	64.0	64.0	53	46.5	0	3	112	0.00	29.977 
16:30	63.9	63.9	63.9	52	45.9	0	1	112	0.00	29.976 
16:35	63.9	63.9	63.9	53	46.4	0	1	112	0.00	29.976 
16:40	63.7	63.7	63.7	50	44.7	0	2	112	0.00	29.976 
16:45	63.7	63.7	63.7	53	46.2	0	0	---	0.00	29.976 
16:50	63.5	63.5	63.5	52	45.6	0	1	112	0.00	29.976 
16:55	63.5	63.5	63.5	51	45.0	0	1	112	0.00	29.976 
17:00	63.5	63.5	63.5	51	45.0	0	1	112	0.00	29.970 
17:05	63.7	63.7	63.7	53	46.2	0	1	112	0.00	29.970 
17:10	63.9	63.9	63.9	50	44.9	1	3	112	0.00	29.970 
17:15	64.2	64.2	64.2	51	45.7	0	3	112	0.00	29.970 
17:20	64.2	64.2	64.2	51	45.7	0	2	112	0.00	29.970 
17:25	64.2	64.2	64.2	50	45.2	1	4	112	0.00	29.970 
17:30	64.0	64.0	64.0	52	46.0	0	1	112	0.00	29.965 
17:35	63.9	63.9	63.9	50	44.9	0	2	112	0.00	29.965 
17:40	63.7	63.7	63.7	51	45.2	0	1	112	0.00	29.965 
17:45	63.5	63.5	63.5	53	46.1	0	0	---	0.00	29.967 
17:50	63.2	63.2	63.2	54	46.3	0	0	---	0.00	29.967 
17:55	62.9	62.9	62.9	56	47.0	0	0	---	0.00	29.967 
18:00	62.7	62.7	62.7	56	46.8	0	0	---	0.00	29.972 
18:05	62.6	62.6	62.6	56	46.7	0	0	---	0.00	29.972 
18:10	62.4	62.4	62.4	57	47.0	0	0	---	0.00	29.972 
18:15	62.3	62.3	62.3	57	46.9	0	0	---	0.00	29.974 
18:20	62.1	62.1	62.1	57	46.7	0	0	---	0.00	29.974 
18:25	62.0	62.0	62.0	58	47.0	0	0	---	0.00	29.974 
18:30	61.8	61.8	61.8	58	46.9	0	0	---	0.00	29.977 
18:35	61.8	61.8	61.8	59	47.3	0	0	---	0.00	29.977 
18:40	61.6	61.6	61.6	59	47.1	0	0	---	0.00	29.977 
18:45	61.6	61.6	61.6	64	49.3	0	0	---	0.00	29.980 
18:50	61.5	61.5	61.5	65	49.6	0	0	---	0.00	29.980 
18:55	61.2	61.2	61.2	68	50.5	0	0	---	0.00	29.980 
19:00	60.9	60.9	60.9	70	51.0	0	0	---	0.00	29.989 
19:05	60.1	60.1	60.1	71	50.7	0	1	112	0.01	29.989 
19:10	59.5	59.5	59.5	74	51.2	0	1	112	0.00	29.989 
19:15	58.7	58.7	58.7	74	50.4	0	1	112	0.01	29.985 
19:20	58.1	58.1	58.1	74	49.9	0	1	112	0.00	29.985 
19:25	57.5	57.5	57.5	78	50.7	0	0	---	0.00	29.985 
19:30	57.2	57.2	57.2	79	50.7	0	0	---	0.00	29.988 
19:35	56.9	56.9	56.9	80	50.8	0	0	---	0.00	29.988 
19:40	56.6	56.6	56.6	81	50.8	0	0	---	0.00	29.988 
19:45	56.5	56.5	56.5	83	51.4	0	0	---	0.00	29.987 
19:50	56.3	56.3	56.3	84	51.5	0	0	---	0.00	29.987 
19:55	56.2	56.2	56.2	86	52.1	0	0	---	0.00	29.987 
20:00	56.2	56.2	56.2	86	52.1	0	2	112	0.00	29.997 
20:05	56.0	56.0	56.0	85	51.6	0	1	112	0.00	29.997 
20:10	55.7	55.7	55.7	82	50.3	0	0	---	0.00	29.997 
20:15	55.7	55.7	55.7	81	50.0	0	0	---	0.00	29.998 
20:20	55.7	55.7	55.7	81	50.0	0	0	---	0.00	29.998 
20:25	55.6	55.6	55.6	81	49.9	0	0	---	0.00	29.998 
20:30	55.4	55.4	55.4	82	50.0	0	0	---	0.00	29.998 
20:35	55.3	55.3	55.3	83	50.2	0	0	---	0.00	29.998 
20:40	55.1	55.1	55.1	83	50.0	0	0	---	0.00	29.998 
20:45	55.1	55.1	55.1	84	50.4	0	0	---	0.00	29.998 
20:50	54.8	54.8	54.8	84	50.1	0	0	---	0.00	29.998 
20:55	54.7	54.7	54.7	85	50.3	0	0	---	0.00	29.998 
21:00	54.4	54.4	54.4	85	50.0	0	0	---	0.00	29.999 
21:05	54.1	54.1	54.1	85	49.7	0	0	---	0.00	29.999 
21:10	53.9	53.9	53.9	86	49.8	0	1	112	0.00	29.999 
21:15	53.8	53.8	53.8	85	49.4	0	0	---	0.00	30.002 
21:20	54.1	54.1	54.1	84	49.4	0	0	---	0.00	30.002 
21:25	54.1	54.1	54.1	82	48.7	0	0	---	0.00	30.002 
21:30	54.2	54.2	54.2	81	48.5	0	0	---	0.00	30.006 
21:35	54.4	54.4	54.4	80	48.4	0	1	112	0.00	30.006 
21:40	54.5	54.5	54.5	80	48.5	0	0	---	0.00	30.006 
21:45	54.5	54.5	54.5	80	48.5	0	0	---	0.00	30.009 
21:50	54.4	54.4	54.4	79	48.0	0	0	---	0.00	30.009 
21:55	54.4	54.4	54.4	79	48.0	0	0	---	0.00	30.009 
22:00	54.2	54.2	54.2	80	48.2	0	0	---	0.00	30.010 
22:05	53.9	53.9	53.9	80	47.9	0	0	---	0.00	30.010 
22:10	53.8	53.8	53.8	81	48.1	0	0	---	0.00	30.010 
22:15	53.6	53.6	53.6	81	47.9	0	0	---	0.00	30.011 
22:20	53.5	53.5	53.5	81	47.8	0	0	---	0.00	30.011 
22:25	53.2	53.2	53.2	82	47.8	0	0	---	0.00	30.011 
22:30	53.1	53.1	53.1	82	47.8	0	0	---	0.00	30.010 
22:35	52.9	52.9	52.9	83	47.9	0	0	---	0.00	30.010 
22:40	52.8	52.8	52.8	84	48.1	0	0	---	0.00	30.010 
22:45	52.6	52.6	52.6	84	47.9	0	0	---	0.00	30.009 
22:50	52.3	52.3	52.3	84	47.6	0	0	---	0.00	30.009 
22:55	52.2	52.2	52.2	84	47.5	0	0	---	0.00	30.009 
23:00	52.0	52.0	52.0	84	47.3	0	0	---	0.00	30.012 
23:05	51.7	51.7	51.7	85	47.3	0	0	---	0.00	30.012 
23:10	51.4	51.4	51.4	86	47.4	0	0	---	0.00	30.012 
23:15	51.3	51.3	51.3	86	47.3	0	0	---	0.00	30.007 
23:20	51.1	51.1	51.1	87	47.4	0	0	---	0.00	30.007 
23:25	50.8	50.8	50.8	87	47.1	0	0	---	0.00	30.007 
23:30	50.7	50.7	50.7	87	47.0	0	0	---	0.00	30.004 
23:35	50.5	50.5	50.5	87	46.8	0	0	---	0.00	30.004 
23:40	50.4	50.4	50.4	87	46.7	0	0	---	0.00	30.004 
23:45	50.1	50.1	50.1	87	46.4	0	0	---	0.00	30.004 
23:50	49.9	49.9	49.9	87	46.2	0	0	---	0.00	30.004 
23:55	49.8	49.8	49.8	88	46.4	0	0	---	0.00	30.004 

CoCoRaHS
IN-AL-39
A2 Web Hosting
Creative Commons License
GoDaddy
search engine by freefind advanced

loaded 2018-11-17 15:11:44 • last modified 2010-11-18 10:43:29
Privacy PolicyDisclaimer
• wx.awcolley.com is powered by PmWiki v.2002016 •
• all content (unless otherwise noted) © 2018 A W Colley